createdAt,value
2023-01-13T00:18:11.615Z,101861.00
2023-01-13T00:20:44.459Z,101854.16
2023-01-13T00:23:18.738Z,101861.41
2023-01-13T00:26:18.273Z,101856.28
2023-01-13T00:28:46.758Z,101850.19
2023-01-13T00:31:31.688Z,101848.47
2023-01-13T00:34:09.094Z,101847.78
2023-01-13T00:36:37.749Z,101855.03
2023-01-13T00:39:15.163Z,101852.38
2023-01-13T00:42:07.843Z,101840.84
2023-01-13T00:44:39.591Z,101839.84
2023-01-13T00:47:13.452Z,101842.53
2023-01-13T00:49:41.964Z,101851.53
2023-01-13T00:52:10.199Z,101833.75
2023-01-13T00:54:38.607Z,101829.25
2023-01-13T00:57:09.829Z,101826.69
2023-01-13T00:59:43.989Z,101823.28
2023-01-13T01:08:48.491Z,101833.75
2023-01-13T01:11:22.298Z,101824.19
2023-01-13T01:13:55.409Z,101826.88
2023-01-13T01:16:26.373Z,101825.13
2023-01-13T01:18:57.053Z,101828.78
2023-01-13T01:21:26.779Z,101820.00
2023-01-13T01:26:35.738Z,101826.59
2023-01-13T01:29:22.431Z,101816.97
2023-01-13T01:31:51.033Z,101825.84
2023-01-13T01:34:19.322Z,101829.44
2023-01-13T01:36:47.777Z,101831.28
2023-01-13T01:39:19.201Z,101837.47
2023-01-13T01:42:12.210Z,101838.41
2023-01-13T01:45:01.760Z,101840.03
2023-01-13T01:47:53.446Z,101852.75
2023-01-13T01:50:58.652Z,101846.63
2023-01-13T01:54:18.370Z,101852.28
2023-01-13T01:56:48.469Z,101852.56
2023-01-13T01:59:53.580Z,101845.41
2023-01-13T02:02:34.901Z,101845.59
2023-01-13T02:05:09.397Z,101839.50
2023-01-13T02:07:51.467Z,101843.13
2023-01-13T02:10:49.974Z,101845.69
2023-01-13T02:13:34.640Z,101855.72
2023-01-13T02:16:29.070Z,101847.81
2023-01-13T02:22:38.309Z,101841.13
2023-01-13T02:25:41.443Z,101834.16
2023-01-13T02:29:16.853Z,101838.56
2023-01-13T02:31:51.283Z,101860.13
2023-01-13T02:34:49.072Z,101855.53
2023-01-13T02:37:24.499Z,101861.91
2023-01-13T02:40:12.753Z,101865.53
2023-01-13T02:43:12.072Z,101861.06
2023-01-13T02:45:57.003Z,101866.50
2023-01-13T02:48:45.827Z,101859.31
2023-01-13T02:51:20.906Z,101855.81
2023-01-13T02:53:54.568Z,101848.00
2023-01-13T02:56:25.562Z,101849.88
2023-01-13T02:58:56.845Z,101847.41
2023-01-13T03:01:25.390Z,101850.34
2023-01-13T03:03:53.789Z,101840.81
2023-01-13T03:06:47.323Z,101831.06
2023-01-13T03:09:30.736Z,101832.16
2023-01-13T03:12:16.689Z,101822.41
2023-01-13T03:14:58.397Z,101821.63
2023-01-13T03:17:43.706Z,101809.25
2023-01-13T03:20:30.309Z,101809.44
2023-01-13T03:23:14.481Z,101806.88
2023-01-13T03:25:55.004Z,101807.91
2023-01-13T03:28:34.243Z,101810.78
2023-01-13T03:31:11.123Z,101806.38
2023-01-13T03:33:47.048Z,101806.47
2023-01-13T03:36:18.420Z,101809.13
2023-01-13T03:38:51.485Z,101799.59
2023-01-13T03:41:35.801Z,101812.94
2023-01-13T03:44:29.658Z,101823.63
2023-01-13T03:47:08.670Z,101829.88
2023-01-13T03:50:03.015Z,101833.53
2023-01-13T03:52:39.056Z,101827.41
2023-01-13T03:55:30.049Z,101825.63
2023-01-13T03:58:15.244Z,101829.22
2023-01-13T04:00:52.360Z,101827.50
2023-01-13T04:03:29.980Z,101838.28
2023-01-13T04:06:10.483Z,101842.75
2023-01-13T04:08:43.418Z,101840.19
2023-01-13T04:11:19.449Z,101847.31
2023-01-13T04:13:50.729Z,101850.06
2023-01-13T04:16:19.095Z,101847.41
2023-01-13T04:18:47.370Z,101858.09
2023-01-13T04:21:15.614Z,101861.72
2023-01-13T04:23:43.947Z,101863.50
2023-01-13T04:26:13.528Z,101866.19
2023-01-13T04:28:41.735Z,101852.94
2023-01-13T04:31:10.180Z,101864.47
2023-01-13T04:33:38.408Z,101863.59
2023-01-13T04:36:07.007Z,101861.88
2023-01-13T04:38:35.257Z,101857.41
2023-01-13T04:41:03.505Z,101856.63
2023-01-13T04:43:31.750Z,101854.84
2023-01-13T04:46:00.034Z,101852.25
2023-01-13T04:48:28.309Z,101846.94
2023-01-13T04:50:56.567Z,101849.59
2023-01-13T04:53:25.673Z,101846.16
2023-01-13T04:55:53.999Z,101836.34
2023-01-13T04:58:22.530Z,101829.28
2023-01-13T05:00:52.369Z,101832.91
2023-01-13T05:03:20.718Z,101841.88
2023-01-13T05:05:53.159Z,101843.66
2023-01-13T05:08:21.421Z,101839.19
2023-01-13T05:10:49.743Z,101844.53
2023-01-13T05:13:36.715Z,101842.81
2023-01-13T05:16:24.899Z,101841.94
2023-01-13T05:18:53.223Z,101838.47
2023-01-13T05:21:39.710Z,101850.00
2023-01-13T05:24:28.124Z,101853.63
2023-01-13T05:26:57.321Z,101851.91
2023-01-13T05:29:25.549Z,101855.41
2023-01-13T05:31:53.910Z,101852.84
2023-01-13T05:34:22.185Z,101847.50
2023-01-13T05:36:50.437Z,101854.66
2023-01-13T05:39:18.691Z,101854.66
2023-01-13T05:42:05.164Z,101860.09
2023-01-13T05:44:33.419Z,101862.75
2023-01-13T05:47:01.648Z,101869.91
2023-01-13T05:49:29.876Z,101867.31
2023-01-13T05:51:58.420Z,101869.97
2023-01-13T05:54:26.686Z,101862.94
2023-01-13T05:56:54.929Z,101868.28
2023-01-13T05:59:23.279Z,101860.28
2023-01-13T06:01:51.529Z,101861.22
2023-01-13T06:04:19.874Z,101855.88
2023-01-13T06:06:49.432Z,101855.97
2023-01-13T06:09:17.683Z,101851.47
2023-01-13T06:11:47.252Z,101870.16
2023-01-13T06:14:15.921Z,101860.47
2023-01-13T06:16:46.247Z,101869.31
2023-01-13T06:19:14.663Z,101871.22
2023-01-13T06:21:45.819Z,101866.72
2023-01-13T06:24:14.054Z,101865.00
2023-01-13T06:26:43.379Z,101865.00
2023-01-13T06:29:14.943Z,101862.44
2023-01-13T06:31:43.588Z,101870.34
2023-01-13T06:34:15.318Z,101865.97
2023-01-13T06:36:49.575Z,101857.97
2023-01-13T06:39:21.361Z,101860.69
2023-01-13T06:42:10.258Z,101863.38
2023-01-13T06:44:38.562Z,101873.09
2023-01-13T06:47:07.960Z,101881.19
2023-01-13T06:49:36.211Z,101876.78
2023-01-13T06:52:04.515Z,101880.34
2023-01-13T06:54:32.834Z,101879.47
2023-01-13T06:57:01.426Z,101883.94
2023-01-13T06:59:29.957Z,101869.75
2023-01-13T07:01:58.389Z,101851.09
2023-01-13T07:04:27.265Z,101851.09
2023-01-13T07:06:56.243Z,101856.44
2023-01-13T07:09:24.617Z,101864.44
2023-01-13T07:11:53.623Z,101858.22
2023-01-13T07:14:40.568Z,101873.38
2023-01-13T07:17:08.835Z,101864.59
2023-01-13T07:19:37.118Z,101861.06
2023-01-13T07:22:05.417Z,101861.06
2023-01-13T07:24:34.915Z,101879.72
2023-01-13T07:27:03.176Z,101882.41
2023-01-13T07:29:31.434Z,101876.22
2023-01-13T07:31:59.757Z,101870.88
2023-01-13T07:34:27.982Z,101869.06
2023-01-13T07:36:56.213Z,101856.59
2023-01-13T07:39:24.448Z,101845.94
2023-01-13T07:42:11.103Z,101855.63
2023-01-13T07:44:39.353Z,101856.59
2023-01-13T07:47:09.405Z,101845.94
2023-01-13T07:49:38.001Z,101853.06
2023-01-13T07:52:06.479Z,101866.41
2023-01-13T07:54:40.498Z,101852.22
2023-01-13T07:57:10.558Z,101856.69
2023-01-13T07:59:38.866Z,101850.47
2023-01-13T08:02:07.513Z,101863.81
2023-01-13T08:04:36.036Z,101879.81
2023-01-13T08:07:06.000Z,101880.75
2023-01-13T08:09:34.278Z,101883.59
2023-01-13T08:12:20.718Z,101870.19
2023-01-13T08:14:50.975Z,101865.81
2023-01-13T08:17:20.530Z,101865.72
2023-01-13T08:19:48.999Z,101867.41
2023-01-13T08:22:17.264Z,101839.06
2023-01-13T08:24:46.360Z,101843.84
2023-01-13T08:27:14.662Z,101831.78
2023-01-13T08:29:42.927Z,101821.72
2023-01-13T08:32:11.190Z,101819.03
2023-01-13T08:34:39.449Z,101826.63
2023-01-13T08:37:07.697Z,101818.81
2023-01-13T08:39:36.999Z,101821.28
2023-01-13T08:42:06.201Z,101831.41
2023-01-13T08:44:34.978Z,101838.09
2023-01-13T08:47:03.649Z,101870.00
2023-01-13T08:49:31.960Z,101855.81
2023-01-13T08:52:00.346Z,101854.56
2023-01-13T08:54:28.660Z,101837.09
2023-01-13T08:56:57.117Z,101828.53
2023-01-13T08:59:25.507Z,101826.97
2023-01-13T09:01:53.991Z,101844.84
2023-01-13T09:04:25.648Z,101814.66
2023-01-13T09:06:54.644Z,101846.06
2023-01-13T09:09:23.891Z,101853.56
2023-01-13T09:12:11.471Z,101851.19
2023-01-13T09:14:41.086Z,101835.59
2023-01-13T09:17:09.605Z,101787.13
2023-01-13T09:19:38.227Z,101793.56
2023-01-13T09:22:06.503Z,101804.41
2023-01-13T09:24:35.615Z,101799.19
2023-01-13T09:27:03.951Z,101796.50
2023-01-13T09:29:32.256Z,101807.94
2023-01-13T09:32:00.579Z,101788.34
2023-01-13T09:34:47.231Z,101775.75
2023-01-13T09:37:15.639Z,101778.53
2023-01-13T09:39:43.916Z,101770.59
2023-01-13T09:42:55.616Z,101754.63
2023-01-13T09:45:43.654Z,101741.38
2023-01-13T09:48:18.012Z,101736.13
2023-01-13T09:51:00.945Z,101735.94
2023-01-13T09:53:34.262Z,101737.59
2023-01-13T09:56:02.992Z,101747.41
2023-01-13T09:58:31.422Z,101747.22
2023-01-13T10:01:21.075Z,101753.13
2023-01-13T10:03:50.244Z,101738.84
2023-01-13T10:06:34.283Z,101738.56
2023-01-13T10:09:02.891Z,101753.72
2023-01-13T10:11:55.536Z,101760.69
2023-01-13T10:14:29.442Z,101755.94
2023-01-13T10:17:12.783Z,101754.00
2023-01-13T10:19:51.882Z,101747.66
2023-01-13T10:22:54.410Z,101751.84
2023-01-13T10:25:46.218Z,101759.56
2023-01-13T10:28:19.183Z,101753.03
2023-01-13T10:30:48.815Z,101750.78
2023-01-13T10:33:29.403Z,101774.78
2023-01-13T10:36:16.941Z,101772.97
2023-01-13T10:38:50.039Z,101789.09
2023-01-13T10:41:26.977Z,101805.09
2023-01-13T10:44:06.349Z,101801.97
2023-01-13T10:46:52.069Z,101809.78
2023-01-13T10:49:39.425Z,101796.22
2023-01-13T10:52:27.600Z,101758.47
2023-01-13T10:54:56.724Z,101741.88
2023-01-13T10:57:27.978Z,101733.09
2023-01-13T10:59:57.219Z,101727.97
2023-01-13T11:02:30.427Z,101736.13
2023-01-13T11:05:01.698Z,101717.56
2023-01-13T11:07:31.935Z,101718.50
2023-01-13T11:10:07.767Z,101722.16
2023-01-13T11:12:45.046Z,101715.84
2023-01-13T11:15:21.019Z,101722.81
2023-01-13T11:18:05.830Z,101703.13
2023-01-13T11:20:42.153Z,101702.09
2023-01-13T11:23:28.211Z,101686.00
2023-01-13T11:26:07.980Z,101683.31
2023-01-13T11:29:03.148Z,101679.59
2023-01-13T11:31:38.361Z,101669.81
2023-01-13T11:34:38.497Z,101653.72
2023-01-13T11:37:29.817Z,101650.94
2023-01-13T11:40:14.728Z,101656.28
2023-01-13T11:43:04.836Z,101646.38
2023-01-13T11:45:49.133Z,101645.44
2023-01-13T11:48:23.926Z,101653.44
2023-01-13T11:51:16.996Z,101642.66
2023-01-13T11:54:03.530Z,101640.69
2023-01-13T11:56:52.488Z,101636.84
2023-01-13T11:59:32.326Z,101613.16
2023-01-13T12:02:29.692Z,101608.00
2023-01-13T12:05:06.984Z,101599.16
2023-01-13T12:07:45.050Z,101586.47
2023-01-13T12:10:18.350Z,101588.84
2023-01-13T12:13:04.491Z,101581.53
2023-01-13T12:16:03.498Z,101585.81
2023-01-13T12:18:37.646Z,101586.78
2023-01-13T12:21:27.798Z,101591.25
2023-01-13T12:24:00.880Z,101589.72
2023-01-13T12:26:34.209Z,101587.25
2023-01-13T12:29:08.510Z,101590.97
2023-01-13T12:31:41.593Z,101587.53
2023-01-13T12:34:17.484Z,101608.00
2023-01-13T12:37:15.615Z,101586.47
2023-01-13T12:40:00.254Z,101581.72
2023-01-13T12:43:02.009Z,101585.16
2023-01-13T12:45:34.336Z,101590.56
2023-01-13T12:48:02.918Z,101584.50
2023-01-13T12:50:31.072Z,101581.94
2023-01-13T12:53:02.048Z,101585.53
2023-01-13T12:55:34.250Z,101591.81
2023-01-13T12:58:11.304Z,101579.63
2023-01-13T13:00:42.507Z,101583.50
2023-01-13T13:03:14.557Z,101579.50
2023-01-13T13:06:13.836Z,101573.53
2023-01-13T13:09:18.598Z,101572.00
2023-01-13T13:12:04.517Z,101591.78
2023-01-13T13:14:38.653Z,101597.09
2023-01-13T13:17:35.417Z,101584.84
2023-01-13T13:20:04.158Z,101575.50
2023-01-13T13:22:45.039Z,101568.94
2023-01-13T13:25:24.789Z,101566.69
2023-01-13T13:28:10.921Z,101566.41
2023-01-13T13:30:46.042Z,101576.75
2023-01-13T13:33:38.382Z,101568.94
2023-01-13T13:36:36.546Z,101564.28
2023-01-13T13:39:24.774Z,101558.75
2023-01-13T13:42:30.128Z,101559.38
2023-01-13T13:45:19.179Z,101562.22
2023-01-13T13:47:47.568Z,101560.50
2023-01-13T13:50:33.634Z,101544.41
2023-01-13T13:53:09.265Z,101544.59
2023-01-13T13:55:39.462Z,101541.09
2023-01-13T13:58:18.107Z,101536.78
2023-01-13T14:00:49.518Z,101561.72
2023-01-13T14:03:20.585Z,101553.06
2023-01-13T14:06:00.954Z,101560.88
2023-01-13T14:08:31.528Z,101551.94
2023-01-13T14:11:00.079Z,101552.78
2023-01-13T14:13:31.267Z,101559.75
2023-01-13T14:16:04.961Z,101567.53
2023-01-13T14:18:47.381Z,101569.22
2023-01-13T14:21:28.757Z,101569.41
2023-01-13T14:24:18.758Z,101573.06
2023-01-13T14:26:54.296Z,101560.41
2023-01-13T14:29:25.138Z,101574.75
2023-01-13T14:31:56.141Z,101572.88
2023-01-13T14:34:31.248Z,101538.72
2023-01-13T14:37:29.497Z,101547.41
2023-01-13T14:39:58.507Z,101539.13
2023-01-13T14:42:28.825Z,101540.84
2023-01-13T14:44:57.202Z,101532.75
2023-01-13T14:47:32.688Z,101531.03
2023-01-13T14:50:12.238Z,101514.19
2023-01-13T14:52:58.308Z,101544.53
2023-01-13T14:55:41.217Z,101518.66
2023-01-13T14:58:27.815Z,101503.44
2023-01-13T15:01:30.545Z,101490.22
2023-01-13T15:04:29.288Z,101490.31
2023-01-13T15:06:59.265Z,101473.25
2023-01-13T15:12:33.664Z,101479.38
2023-01-13T15:15:02.652Z,101480.31
2023-01-13T15:17:33.213Z,101495.34
2023-01-13T15:20:02.776Z,101497.34
2023-01-13T15:22:31.074Z,101512.47
2023-01-13T15:24:59.506Z,101533.13
2023-01-13T15:27:27.892Z,101559.09
2023-01-13T15:29:56.240Z,101577.16
2023-01-13T15:32:26.225Z,101583.00
2023-01-13T15:34:54.625Z,101575.22
2023-01-13T15:37:34.668Z,101555.03
2023-01-13T15:40:03.154Z,101541.22
2023-01-13T15:42:49.766Z,101543.38
2023-01-13T15:45:36.408Z,101558.69
2023-01-13T15:48:05.037Z,101552.72
2023-01-13T15:50:39.649Z,101567.63
2023-01-13T15:53:08.225Z,101543.13
2023-01-13T15:55:39.411Z,101549.53
2023-01-13T15:58:07.768Z,101559.72
2023-01-13T16:00:36.093Z,101568.47
2023-01-13T16:03:04.450Z,101574.56
2023-01-13T16:05:32.690Z,101580.34
2023-01-13T16:08:00.944Z,101586.13
2023-01-13T16:10:29.604Z,101600.59
2023-01-13T16:12:58.097Z,101593.66
2023-01-13T16:15:28.597Z,101588.59
2023-01-13T16:18:05.405Z,101582.59
2023-01-13T16:20:34.329Z,101595.88
2023-01-13T16:23:03.243Z,101609.25
2023-01-13T16:25:31.737Z,101600.50
2023-01-13T16:27:59.939Z,101610.28
2023-01-13T16:30:30.924Z,101622.47
2023-01-13T16:33:00.130Z,101624.41
2023-01-13T16:35:29.953Z,101637.88
2023-01-13T16:37:59.507Z,101665.41
2023-01-13T16:40:31.518Z,101681.34
2023-01-13T16:43:01.725Z,101691.91
2023-01-13T16:45:34.481Z,101673.13
2023-01-13T16:48:03.119Z,101664.84
2023-01-13T16:50:40.431Z,101667.06
2023-01-13T16:53:12.739Z,101673.88
2023-01-13T16:55:42.807Z,101669.19
2023-01-13T16:58:21.871Z,101683.97
2023-01-13T17:00:50.370Z,101674.00
2023-01-13T17:03:18.864Z,101685.34
2023-01-13T17:05:48.467Z,101679.06
2023-01-13T17:08:18.920Z,101686.88
2023-01-13T17:10:48.397Z,101677.97
2023-01-13T17:13:17.446Z,101690.34
2023-01-13T17:15:47.036Z,101681.41
2023-01-13T17:18:15.315Z,101684.94
2023-01-13T17:20:43.740Z,101687.59
2023-01-13T17:23:12.018Z,101697.31
2023-01-13T17:25:40.285Z,101699.97
2023-01-13T17:28:08.525Z,101704.41
2023-01-13T17:30:40.306Z,101696.44
2023-01-13T17:33:09.754Z,101696.50
2023-01-13T17:35:40.480Z,101700.91
2023-01-13T17:38:08.760Z,101691.19
2023-01-13T17:40:38.576Z,101705.28
2023-01-13T17:43:06.920Z,101692.91
2023-01-13T17:45:35.347Z,101683.91
2023-01-13T17:48:03.623Z,101676.78
2023-01-13T17:50:33.418Z,101673.19
2023-01-13T17:53:01.655Z,101679.28
2023-01-13T17:55:29.897Z,101673.03
2023-01-13T17:58:09.123Z,101683.50
2023-01-13T18:00:37.394Z,101697.72
2023-01-13T18:03:05.754Z,101680.00
2023-01-13T18:05:34.941Z,101675.69
2023-01-13T18:08:03.181Z,101685.38
2023-01-13T18:10:31.835Z,101685.31
2023-01-13T18:13:00.128Z,101683.50
2023-01-13T18:15:28.416Z,101683.41
2023-01-13T18:17:56.906Z,101680.66
2023-01-13T18:20:43.511Z,101692.16
2023-01-13T18:23:37.423Z,101688.81
2023-01-13T18:26:41.877Z,101685.22
2023-01-13T18:29:10.110Z,101683.50
2023-01-13T18:31:38.365Z,101672.94
2023-01-13T18:34:06.745Z,101682.97
2023-01-13T18:36:35.099Z,101680.56
2023-01-13T18:39:04.349Z,101651.47
2023-01-13T18:41:51.111Z,101664.09
2023-01-13T18:44:19.370Z,101654.47
2023-01-13T18:46:47.614Z,101648.34
2023-01-13T18:49:16.179Z,101651.78
2023-01-13T18:51:44.499Z,101661.47
2023-01-13T18:54:12.892Z,101662.09
2023-01-13T18:56:41.315Z,101673.38
2023-01-13T18:59:09.544Z,101665.03
2023-01-13T19:01:38.942Z,101680.91
2023-01-13T19:04:16.148Z,101671.91
2023-01-13T19:06:51.216Z,101666.50
2023-01-13T19:09:24.808Z,101656.63
2023-01-13T19:11:54.117Z,101649.50
2023-01-13T19:14:43.232Z,101652.03
2023-01-13T19:17:14.176Z,101658.94
2023-01-13T19:19:48.144Z,101646.53
2023-01-13T19:22:20.651Z,101642.03
2023-01-13T19:24:48.956Z,101640.22
2023-01-13T19:27:19.200Z,101657.75
2023-01-13T19:29:49.217Z,101634.59
2023-01-13T19:32:22.438Z,101641.44
2023-01-13T19:34:51.941Z,101647.56
2023-01-13T19:37:21.008Z,101625.22
2023-01-13T19:39:49.292Z,101628.66
2023-01-13T19:42:36.036Z,101625.91
2023-01-13T19:45:22.599Z,101630.28
2023-01-13T19:47:50.892Z,101613.38
2023-01-13T19:50:19.295Z,101609.75
2023-01-13T19:52:47.660Z,101607.88
2023-01-13T19:55:15.959Z,101604.25
2023-01-13T19:57:44.299Z,101607.69
2023-01-13T20:00:15.046Z,101614.81
2023-01-13T20:02:49.975Z,101601.59
2023-01-13T20:05:23.103Z,101593.59
2023-01-13T20:07:52.000Z,101587.34
2023-01-13T20:10:22.566Z,101578.41
2023-01-13T20:12:50.869Z,101574.75
2023-01-13T20:15:19.283Z,101565.91
2023-01-13T20:17:47.661Z,101549.75
2023-01-13T20:20:17.516Z,101569.34
2023-01-13T20:22:46.628Z,101558.34
2023-01-13T20:25:17.576Z,101574.97
2023-01-13T20:27:47.959Z,101562.53
2023-01-13T20:30:17.087Z,101557.13
2023-01-13T20:32:45.881Z,101563.28
2023-01-13T20:35:14.340Z,101564.03
2023-01-13T20:37:44.273Z,101562.34
2023-01-13T20:40:16.340Z,101551.59
2023-01-13T20:42:47.468Z,101543.63
2023-01-13T20:45:18.923Z,101547.03
2023-01-13T20:47:46.948Z,101541.72
2023-01-13T20:50:16.481Z,101548.94
2023-01-13T20:52:45.331Z,101539.22
2023-01-13T20:55:14.128Z,101540.25
2023-01-13T20:57:49.335Z,101539.41
2023-01-13T21:00:18.134Z,101539.69
2023-01-13T21:02:46.424Z,101530.81
2023-01-13T21:05:15.151Z,101523.72
2023-01-13T21:07:43.500Z,101529.88
2023-01-13T21:10:14.843Z,101524.66
2023-01-13T21:13:01.065Z,101527.41
2023-01-13T21:15:29.471Z,101531.88
2023-01-13T21:18:15.907Z,101528.25
2023-01-13T21:20:45.000Z,101525.59
2023-01-13T21:23:13.754Z,101525.69
2023-01-13T21:25:42.064Z,101514.28
2023-01-13T21:28:12.443Z,101532.06
2023-01-13T21:30:41.212Z,101539.34
2023-01-13T21:33:12.842Z,101521.72
2023-01-13T21:35:41.697Z,101532.38
2023-01-13T21:38:11.629Z,101528.97
2023-01-13T21:40:40.131Z,101527.06
2023-01-13T21:43:48.287Z,101547.59
2023-01-13T21:46:35.004Z,101529.97
